Time;durP1;ratioP1;P1;durP2;ratioP2;P2;SDS_P1;SDS_P2;PMS_P1;PMS_P2;Temp;Humidity;BMP_temperature;BMP_pressure;BME280_temperature;BME280_humidity;BME280_pressure;Samples;Min_cycle;Max_cycle;Signal;HPM_P1;HPM_P2
2024/03/23 00:01:29;;;;;;;54.17;18.02;;;8.40;99.90;;;;;;5011937;28;20401;-71
2024/03/23 00:03:55;;;;;;;19.63;6.67;;;8.40;99.90;;;;;;5011911;28;20956;-71
2024/03/23 00:06:22;;;;;;;16.65;5.90;;;8.00;97.70;;;;;;5012187;28;20404;-71
2024/03/23 00:08:48;;;;;;;18.92;5.78;;;7.90;95.40;;;;;;5012112;28;20400;-71
2024/03/23 00:11:14;;;;;;;16.10;4.80;;;7.80;98.10;;;;;;5011524;28;20893;-71
2024/03/23 00:13:41;;;;;;;13.43;5.50;;;7.80;96.90;;;;;;5011522;28;20802;-71
2024/03/23 00:16:07;;;;;;;21.25;5.57;;;7.70;98.30;;;;;;5010941;28;20400;-70
2024/03/23 00:18:34;;;;;;;21.17;5.50;;;7.70;99.90;;;;;;5011670;28;20400;-71
2024/03/23 00:21:02;;;;;;;20.65;5.05;;;7.70;95.40;;;;;;5011346;28;20397;-72
2024/03/23 00:23:28;;;;;;;21.42;5.55;;;7.70;98.00;;;;;;5011721;28;20389;-70
2024/03/23 00:25:55;;;;;;;21.25;5.93;;;7.60;97.50;;;;;;5011641;28;20887;-70
2024/03/23 00:28:21;;;;;;;20.83;5.30;;;7.50;97.70;;;;;;4993709;28;20536;-71
2024/03/23 00:30:48;;;;;;;17.02;5.40;;;7.50;98.80;;;;;;5011406;28;20392;-71
2024/03/23 00:33:14;;;;;;;20.55;5.60;;;7.60;99.90;;;;;;5011554;28;20882;-70
2024/03/23 00:35:41;;;;;;;23.23;6.10;;;7.50;97.30;;;;;;5011717;28;20396;-71
2024/03/23 00:38:08;;;;;;;22.63;5.60;;;7.50;97.40;;;;;;4993826;28;20396;-71
2024/03/23 00:40:35;;;;;;;18.23;5.72;;;7.60;94.90;;;;;;5011232;28;20400;-71
2024/03/23 00:43:02;;;;;;;26.33;6.60;;;7.60;95.80;;;;;;4993640;28;20393;-71
2024/03/23 00:45:28;;;;;;;27.20;5.97;;;7.60;99.20;;;;;;5014661;28;20395;-71
2024/03/23 00:47:54;;;;;;;22.38;5.63;;;7.60;95.70;;;;;;4997933;28;20768;-70
2024/03/23 00:50:21;;;;;;;19.58;6.10;;;7.60;95.40;;;;;;5016761;28;20392;-70
2024/03/23 00:52:47;;;;;;;29.45;6.75;;;7.60;93.40;;;;;;5017068;28;20395;-70
2024/03/23 00:55:14;;;;;;;20.58;5.80;;;7.60;95.20;;;;;;5016980;28;20779;-71
2024/03/23 00:57:39;;;;;;;19.13;5.97;;;7.70;95.00;;;;;;5017579;28;20397;-71
2024/03/23 01:00:06;;;;;;;25.60;6.40;;;7.60;94.70;;;;;;5017457;28;20384;-70
2024/03/23 01:02:32;;;;;;;27.60;7.53;;;7.60;97.90;;;;;;4999569;28;20480;-70
2024/03/23 01:04:58;;;;;;;26.27;6.03;;;7.70;98.50;;;;;;5015901;28;20393;-71
2024/03/23 01:07:23;;;;;;;22.15;6.13;;;7.80;98.30;;;;;;5015222;28;20377;-71
2024/03/23 01:09:49;;;;;;;24.98;6.85;;;7.90;96.00;;;;;;5014690;28;20385;-70
2024/03/23 01:12:14;;;;;;;31.67;6.20;;;7.70;97.80;;;;;;4997232;28;20977;-70
2024/03/23 01:14:40;;;;;;;21.58;5.93;;;7.80;98.60;;;;;;5015225;28;20380;-71
2024/03/23 01:17:06;;;;;;;26.10;6.00;;;7.80;98.30;;;;;;5014630;28;20401;-70
2024/03/23 01:19:31;;;;;;;21.10;5.37;;;7.90;95.30;;;;;;5014487;28;20380;-71
2024/03/23 01:21:57;;;;;;;21.45;6.55;;;7.80;90.90;;;;;;5014785;28;20487;-70
2024/03/23 01:24:22;;;;;;;28.27;5.72;;;7.80;95.10;;;;;;5016084;28;20385;-69
2024/03/23 01:26:48;;;;;;;22.65;6.28;;;7.70;94.90;;;;;;5018376;28;20385;-70
2024/03/23 01:29:14;;;;;;;22.73;4.63;;;7.60;92.80;;;;;;5017868;28;20393;-70
2024/03/23 01:31:39;;;;;;;12.50;3.20;;;7.50;87.70;;;;;;4996824;28;20392;-70
2024/03/23 01:34:05;;;;;;;10.45;3.60;;;7.20;78.00;;;;;;5014792;28;20392;-70
2024/03/23 01:36:30;;;;;;;10.90;3.13;;;7.00;85.00;;;;;;5014686;28;20415;-69
2024/03/23 01:38:56;;;;;;;9.13;2.95;;;7.00;86.70;;;;;;5015019;28;20385;-71
2024/03/23 01:41:23;;;;;;;9.07;3.20;;;6.80;88.10;;;;;;5016506;28;20434;-70
2024/03/23 01:43:49;;;;;;;18.90;4.30;;;6.70;93.80;;;;;;5016611;28;20389;-69
2024/03/23 01:46:14;;;;;;;12.77;3.90;;;6.70;89.90;;;;;;4998048;28;20759;-71
2024/03/23 01:48:40;;;;;;;12.52;4.00;;;6.60;90.50;;;;;;4998663;28;20393;-69
2024/03/23 01:51:06;;;;;;;21.40;4.70;;;6.60;93.30;;;;;;4999839;28;20392;-71
2024/03/23 01:53:32;;;;;;;16.33;3.80;;;6.60;93.50;;;;;;5018718;28;20385;-71
2024/03/23 01:55:57;;;;;;;16.20;3.20;;;6.60;94.40;;;;;;5022101;28;20872;-70
2024/03/23 01:58:23;;;;;;;16.50;3.67;;;6.70;91.00;;;;;;5023970;28;20823;-70
2024/03/23 02:00:49;;;;;;;10.07;3.00;;;6.70;90.70;;;;;;5023910;28;20412;-70
2024/03/23 02:03:27;;;;;;;14.50;3.70;;;6.70;91.40;;;;;;5026812;28;20399;-71
2024/03/23 02:05:54;;;;;;;13.93;3.25;;;6.70;87.70;;;;;;5026946;28;20422;-70
2024/03/23 02:08:21;;;;;;;11.73;3.35;;;6.70;91.30;;;;;;5006464;28;20401;-70
2024/03/23 02:10:49;;;;;;;7.72;2.85;;;6.80;90.00;;;;;;5021031;28;20408;-69
2024/03/23 02:13:15;;;;;;;16.30;3.97;;;6.70;92.70;;;;;;5017513;28;20384;-70
2024/03/23 02:15:41;;;;;;;13.13;3.42;;;6.80;96.30;;;;;;5016132;28;20484;-70
2024/03/23 02:18:10;;;;;;;14.37;3.40;;;6.90;93.00;;;;;;5017168;28;20392;-69
2024/03/23 02:20:36;;;;;;;12.63;3.50;;;7.00;88.20;;;;;;5016976;28;20848;-69
2024/03/23 02:23:02;;;;;;;13.35;3.25;;;6.90;89.10;;;;;;5019231;28;20400;-70
2024/03/23 02:25:27;;;;;;;12.00;3.88;;;6.80;90.60;;;;;;5024075;28;20389;-70
2024/03/23 02:27:54;;;;;;;14.43;4.20;;;6.70;97.50;;;;;;5020239;28;20415;-70
2024/03/23 02:30:20;;;;;;;15.30;3.00;;;6.60;99.90;;;;;;5017433;28;20427;-73
2024/03/23 02:32:45;;;;;;;15.90;3.70;;;6.60;99.90;;;;;;5018641;28;20465;-71
2024/03/23 02:35:11;;;;;;;13.35;4.13;;;6.80;99.90;;;;;;5015786;28;20384;-72
2024/03/23 02:37:37;;;;;;;12.10;3.42;;;6.80;99.90;;;;;;5014966;28;20444;-73
2024/03/23 02:40:03;;;;;;;14.98;3.85;;;6.90;99.90;;;;;;5013403;28;20395;-72
2024/03/23 02:42:28;;;;;;;12.93;3.28;;;7.00;98.30;;;;;;5013856;28;20887;-73
2024/03/23 02:44:54;;;;;;;10.75;3.58;;;7.10;92.90;;;;;;5013258;28;20388;-70
2024/03/23 02:47:20;;;;;;;18.73;5.00;;;7.00;93.00;;;;;;5013194;28;20377;-72
2024/03/23 02:49:45;;;;;;;12.03;3.47;;;6.90;93.10;;;;;;4995741;28;20388;-71
2024/03/23 02:52:11;;;;;;;17.50;4.50;;;7.00;87.70;;;;;;5013158;28;20879;-72
2024/03/23 02:54:36;;;;;;;14.07;3.97;;;7.00;89.20;;;;;;4996014;28;20392;-72
2024/03/23 02:57:02;;;;;;;11.30;3.53;;;6.90;88.10;;;;;;5013981;28;20893;-70
2024/03/23 02:59:28;;;;;;;10.90;3.00;;;6.80;92.60;;;;;;5013575;28;20393;-70
2024/03/23 03:01:53;;;;;;;16.40;3.73;;;6.80;90.00;;;;;;5013119;28;20411;-71
2024/03/23 03:04:19;;;;;;;13.40;3.67;;;6.90;88.10;;;;;;5013091;28;20752;-72
2024/03/23 03:06:48;;;;;;;16.90;3.80;;;6.90;85.70;;;;;;5013062;28;20384;-71
2024/03/23 03:09:13;;;;;;;18.10;3.47;;;6.90;87.50;;;;;;5012615;28;20831;-72
2024/03/23 03:11:39;;;;;;;12.80;3.38;;;7.00;83.90;;;;;;5012945;28;20400;-72
2024/03/23 03:14:07;;;;;;;11.00;3.17;;;7.00;85.20;;;;;;5013100;28;20388;-71
2024/03/23 03:16:32;;;;;;;13.75;3.30;;;7.20;83.60;;;;;;5013532;28;20476;-71
2024/03/23 03:18:58;;;;;;;16.13;3.65;;;7.40;78.20;;;;;;4995458;28;20594;-71
2024/03/23 03:21:23;;;;;;;14.00;2.72;;;7.20;72.20;;;;;;5012089;28;21004;-72
2024/03/23 03:23:50;;;;;;;9.88;2.72;;;7.50;68.50;;;;;;4995114;28;20840;-72
2024/03/23 03:26:16;;;;;;;14.38;3.20;;;7.40;68.30;;;;;;5012364;28;20435;-73
2024/03/23 03:28:43;;;;;;;8.65;2.80;;;7.30;69.50;;;;;;5013076;28;20396;-71
2024/03/23 03:31:08;;;;;;;17.38;3.50;;;7.10;75.90;;;;;;5012882;28;20400;-72
2024/03/23 03:33:34;;;;;;;12.03;3.03;;;7.10;79.20;;;;;;5013038;28;20389;-72
2024/03/23 03:35:59;;;;;;;17.87;3.33;;;7.00;81.90;;;;;;5012994;28;20447;-71
2024/03/23 03:38:25;;;;;;;11.63;2.80;;;7.00;82.20;;;;;;5013278;28;20388;-72
2024/03/23 03:40:50;;;;;;;13.57;2.93;;;7.00;81.50;;;;;;5012844;28;20490;-70
2024/03/23 03:43:16;;;;;;;15.27;3.00;;;7.00;81.20;;;;;;5012870;28;20388;-71
2024/03/23 03:45:42;;;;;;;18.05;3.55;;;7.00;81.40;;;;;;5013151;28;20712;-72
2024/03/23 03:48:07;;;;;;;8.50;2.60;;;7.00;77.30;;;;;;5012985;28;20747;-71
2024/03/23 03:50:34;;;;;;;14.40;3.20;;;7.10;76.00;;;;;;5012858;28;20420;-72
2024/03/23 03:52:59;;;;;;;9.32;2.75;;;7.10;76.20;;;;;;5012689;28;20380;-71
2024/03/23 03:55:25;;;;;;;9.55;3.10;;;7.10;74.00;;;;;;5013070;28;20447;-70
2024/03/23 03:57:50;;;;;;;10.95;2.75;;;7.20;74.10;;;;;;4995202;28;20393;-72
2024/03/23 04:00:16;;;;;;;12.75;2.45;;;7.20;75.80;;;;;;5011850;28;20818;-71
2024/03/23 04:02:42;;;;;;;10.75;2.60;;;7.20;75.30;;;;;;5011927;28;20956;-73
2024/03/23 04:05:08;;;;;;;13.48;3.50;;;7.20;73.40;;;;;;5012093;28;20977;-72
2024/03/23 04:07:33;;;;;;;18.05;3.17;;;7.20;75.50;;;;;;5012521;28;20443;-72
2024/03/23 04:09:59;;;;;;;10.55;2.65;;;7.20;74.10;;;;;;5012336;28;20751;-72
2024/03/23 04:12:25;;;;;;;13.85;3.00;;;7.20;73.20;;;;;;5012408;28;20407;-70
2024/03/23 04:14:50;;;;;;;11.77;2.90;;;7.20;72.60;;;;;;5012735;28;20396;-72
2024/03/23 04:17:16;;;;;;;13.10;3.00;;;7.20;71.50;;;;;;5012492;28;20474;-73
2024/03/23 04:19:42;;;;;;;11.27;2.85;;;7.20;72.30;;;;;;5011748;28;20456;-72
2024/03/23 04:22:08;;;;;;;11.05;2.90;;;7.20;71.60;;;;;;5012224;28;20401;-71
2024/03/23 04:24:33;;;;;;;14.18;3.40;;;7.10;75.20;;;;;;5014703;28;20408;-71
2024/03/23 04:26:59;;;;;;;13.40;2.90;;;7.10;77.70;;;;;;5014397;28;20400;-72
2024/03/23 04:29:26;;;;;;;19.77;3.60;;;7.00;75.20;;;;;;5012965;28;20389;-73
2024/03/23 04:31:52;;;;;;;10.65;2.53;;;7.20;71.40;;;;;;5012824;28;20392;-72
2024/03/23 04:34:18;;;;;;;15.40;2.73;;;7.20;70.80;;;;;;5013102;28;20392;-71
2024/03/23 04:36:43;;;;;;;8.00;2.70;;;7.20;70.90;;;;;;5012696;28;20435;-73
2024/03/23 04:39:09;;;;;;;12.52;3.53;;;7.20;73.30;;;;;;4994962;28;20424;-72
2024/03/23 04:41:35;;;;;;;17.05;3.20;;;7.10;76.20;;;;;;5012651;28;20400;-72
2024/03/23 04:44:01;;;;;;;14.20;4.10;;;7.10;74.40;;;;;;5013161;28;20396;-72
2024/03/23 04:46:26;;;;;;;14.80;4.00;;;7.10;75.20;;;;;;5013151;28;20385;-72
2024/03/23 04:48:52;;;;;;;11.37;3.30;;;7.00;78.50;;;;;;5013375;28;20463;-71
2024/03/23 04:51:25;;;;;;;14.52;3.28;;;7.10;78.20;;;;;;5012093;28;20395;-72
2024/03/23 04:53:51;;;;;;;16.92;3.90;;;7.00;78.90;;;;;;4996300;28;20385;-72
2024/03/23 04:56:17;;;;;;;18.58;4.50;;;7.00;82.80;;;;;;5013949;28;21780;-71
2024/03/23 04:58:43;;;;;;;10.77;3.80;;;6.90;85.00;;;;;;5014204;28;20378;-71
2024/03/23 05:01:10;;;;;;;16.83;4.25;;;6.90;83.70;;;;;;4994000;28;20439;-72
2024/03/23 05:03:36;;;;;;;16.40;4.10;;;7.00;84.80;;;;;;5011835;28;20388;-73
2024/03/23 05:06:01;;;;;;;8.90;3.95;;;7.00;83.00;;;;;;5011453;28;20412;-70
2024/03/23 05:08:27;;;;;;;15.70;4.55;;;7.00;83.30;;;;;;5010899;28;20399;-73
2024/03/23 05:10:52;;;;;;;19.77;4.90;;;7.00;83.90;;;;;;5011145;28;20388;-73
2024/03/23 05:13:18;;;;;;;14.60;4.32;;;7.00;85.40;;;;;;5011138;28;20479;-71
2024/03/23 05:15:43;;;;;;;17.15;4.47;;;7.00;83.00;;;;;;5011207;28;20393;-71
2024/03/23 05:18:10;;;;;;;17.83;4.35;;;7.00;85.60;;;;;;5011923;28;20450;-71
2024/03/23 05:20:35;;;;;;;12.67;4.20;;;7.10;84.00;;;;;;5012655;28;20579;-72
2024/03/23 05:23:01;;;;;;;16.30;4.05;;;7.00;83.40;;;;;;5012528;28;20444;-73
2024/03/23 05:25:26;;;;;;;18.30;4.35;;;7.10;83.80;;;;;;5011059;28;20744;-72
2024/03/23 05:27:52;;;;;;;16.67;4.13;;;7.00;84.10;;;;;;5011288;28;20389;-72
2024/03/23 05:30:18;;;;;;;18.20;4.13;;;7.10;83.60;;;;;;4993463;28;20807;-71
2024/03/23 05:32:44;;;;;;;18.55;4.55;;;7.10;80.40;;;;;;5015037;28;20381;-72
2024/03/23 05:35:10;;;;;;;18.30;4.97;;;7.10;80.10;;;;;;5014793;28;20395;-70
2024/03/23 05:37:37;;;;;;;18.85;3.97;;;7.10;81.80;;;;;;5014739;28;20385;-72
2024/03/23 05:40:03;;;;;;;21.02;5.28;;;7.10;84.00;;;;;;5014430;28;20464;-71
2024/03/23 05:42:31;;;;;;;15.77;4.55;;;7.10;85.20;;;;;;4997370;28;20432;-74
2024/03/23 05:44:57;;;;;;;9.88;3.95;;;7.10;81.30;;;;;;5016429;28;20420;-73
2024/03/23 05:47:23;;;;;;;14.70;4.70;;;7.10;82.60;;;;;;5000552;28;20385;-72
2024/03/23 05:49:48;;;;;;;21.55;4.93;;;7.10;81.00;;;;;;5024823;28;20392;-71
2024/03/23 05:52:14;;;;;;;18.38;4.22;;;7.10;84.60;;;;;;5021545;28;20427;-73
2024/03/23 05:54:40;;;;;;;18.63;5.30;;;7.10;85.10;;;;;;5017902;28;20516;-72
2024/03/23 05:57:08;;;;;;;19.58;4.75;;;7.10;84.10;;;;;;5017362;28;20384;-72
2024/03/23 05:59:34;;;;;;;17.83;4.18;;;7.10;83.50;;;;;;5016270;28;20411;-72
2024/03/23 06:01:59;;;;;;;15.75;4.80;;;7.10;85.10;;;;;;4998124;28;20413;-72
2024/03/23 06:04:25;;;;;;;18.50;5.00;;;7.00;85.30;;;;;;5015058;28;20393;-71
2024/03/23 06:06:52;;;;;;;18.30;5.10;;;7.00;85.50;;;;;;5014161;28;20393;-72
2024/03/23 06:09:19;;;;;;;11.27;4.63;;;7.00;85.90;;;;;;5014166;28;20951;-72
2024/03/23 06:11:44;;;;;;;21.77;5.55;;;7.00;83.30;;;;;;5014096;28;20393;-72
2024/03/23 06:14:10;;;;;;;24.90;5.50;;;7.00;83.30;;;;;;5014017;28;20395;-71
2024/03/23 06:16:35;;;;;;;16.15;6.10;;;7.00;84.90;;;;;;5013722;28;20395;-72
2024/03/23 06:19:03;;;;;;;16.38;5.80;;;6.90;87.40;;;;;;5013891;28;20412;-72
2024/03/23 06:21:29;;;;;;;18.58;5.45;;;6.90;86.80;;;;;;5013769;28;20408;-70
2024/03/23 06:23:54;;;;;;;16.87;6.20;;;6.90;86.50;;;;;;5013957;28;20454;-72
2024/03/23 06:26:21;;;;;;;19.77;6.23;;;6.80;88.00;;;;;;4996227;28;20393;-72
2024/03/23 06:28:47;;;;;;;20.48;6.07;;;6.80;87.80;;;;;;5013884;28;20868;-73
2024/03/23 06:31:13;;;;;;;16.42;5.38;;;6.80;87.20;;;;;;4996360;28;20404;-72
2024/03/23 06:33:40;;;;;;;19.85;5.90;;;6.70;88.10;;;;;;5014599;28;20399;-72
2024/03/23 06:36:06;;;;;;;18.75;5.95;;;6.70;89.10;;;;;;5014322;28;20404;-72
2024/03/23 06:38:32;;;;;;;18.98;6.25;;;6.80;88.00;;;;;;5014369;28;20391;-73
2024/03/23 06:40:57;;;;;;;16.42;6.13;;;6.80;85.80;;;;;;5014074;28;20409;-72
2024/03/23 06:43:23;;;;;;;24.83;6.57;;;6.80;87.60;;;;;;5013872;28;20393;-71
2024/03/23 06:45:55;;;;;;;20.73;6.70;;;6.80;87.60;;;;;;5014617;28;20469;-71
2024/03/23 06:48:21;;;;;;;20.40;7.00;;;6.80;87.30;;;;;;5014093;28;20392;-73
2024/03/23 06:50:47;;;;;;;21.20;6.70;;;6.80;88.10;;;;;;5015317;28;20380;-71
2024/03/23 06:53:14;;;;;;;26.20;8.05;;;6.80;89.80;;;;;;5016536;28;20412;-73
2024/03/23 06:55:40;;;;;;;18.10;7.32;;;6.90;88.10;;;;;;5015886;28;20405;-70
2024/03/23 06:58:05;;;;;;;26.75;8.00;;;6.90;86.60;;;;;;5015043;28;20895;-72
2024/03/23 07:00:34;;;;;;;19.60;8.37;;;7.00;85.60;;;;;;5002322;28;20415;-72
2024/03/23 07:03:01;;;;;;;18.85;7.55;;;7.00;87.20;;;;;;5029734;28;20395;-70
2024/03/23 07:05:26;;;;;;;21.77;7.45;;;7.10;85.70;;;;;;5018048;28;20384;-73
2024/03/23 07:07:52;;;;;;;27.10;7.70;;;7.20;83.40;;;;;;5028189;28;20383;-74
2024/03/23 07:10:18;;;;;;;22.80;7.80;;;7.20;82.10;;;;;;5033841;28;20390;-74
2024/03/23 07:12:43;;;;;;;25.75;7.60;;;7.20;82.10;;;;;;5033371;28;20468;-73
2024/03/23 07:15:09;;;;;;;17.98;7.38;;;7.30;83.20;;;;;;5021551;28;20383;-74
2024/03/23 07:17:35;;;;;;;20.85;7.65;;;7.30;79.40;;;;;;5004670;28;20427;-73
2024/03/23 07:20:04;;;;;;;24.37;8.50;;;7.40;79.00;;;;;;5020809;28;20764;-73
2024/03/23 07:22:32;;;;;;;21.45;8.18;;;7.50;80.70;;;;;;5020341;28;20404;-75
2024/03/23 07:25:01;;;;;;;25.85;8.50;;;7.50;81.20;;;;;;5030221;28;20399;-71
2024/03/23 07:27:26;;;;;;;22.80;7.85;;;7.60;82.00;;;;;;5043717;28;20405;-71
2024/03/23 07:29:52;;;;;;;26.10;7.53;;;7.70;77.30;;;;;;5052742;28;20844;-72
2024/03/23 07:32:17;;;;;;;24.45;7.28;;;7.70;79.80;;;;;;5044260;28;20394;-73
2024/03/23 07:34:44;;;;;;;27.00;7.80;;;7.80;74.60;;;;;;5040771;28;20388;-71
2024/03/23 07:37:10;;;;;;;26.00;7.20;;;7.80;74.30;;;;;;5055256;28;20385;-71
2024/03/23 07:39:35;;;;;;;22.65;7.70;;;7.80;72.70;;;;;;5055408;28;20396;-72
2024/03/23 07:42:01;;;;;;;27.10;7.70;;;7.90;72.00;;;;;;5055326;28;20888;-72
2024/03/23 07:44:27;;;;;;;21.13;6.77;;;7.90;71.20;;;;;;5055109;28;20393;-71
2024/03/23 07:46:52;;;;;;;20.50;6.57;;;8.00;71.60;;;;;;5050796;28;20438;-70
2024/03/23 07:49:18;;;;;;;20.80;7.00;;;8.00;70.40;;;;;;5033560;28;20449;-73
2024/03/23 07:51:44;;;;;;;18.67;7.10;;;8.10;67.40;;;;;;5033470;28;20387;-73
2024/03/23 07:54:10;;;;;;;18.92;6.90;;;8.10;69.10;;;;;;5014656;28;20464;-71
2024/03/23 07:56:36;;;;;;;17.92;6.25;;;8.20;68.30;;;;;;5032454;28;20391;-72
2024/03/23 07:59:03;;;;;;;18.73;6.17;;;8.30;65.40;;;;;;5031990;28;20940;-71
2024/03/23 08:01:28;;;;;;;21.77;6.97;;;8.40;64.50;;;;;;5027588;28;20447;-72
2024/03/23 08:03:54;;;;;;;20.05;6.97;;;8.40;61.20;;;;;;5017935;28;20411;-73
2024/03/23 08:06:22;;;;;;;23.58;6.13;;;8.40;60.30;;;;;;5012813;28;20853;-73
2024/03/23 08:08:51;;;;;;;18.50;6.45;;;8.50;60.20;;;;;;5011846;28;20391;-73
2024/03/23 08:11:16;;;;;;;28.80;6.47;;;8.50;61.10;;;;;;5012530;28;20409;-74
2024/03/23 08:13:45;;;;;;;24.87;6.60;;;8.60;61.80;;;;;;5013532;28;20397;-73
2024/03/23 08:16:10;;;;;;;19.80;6.30;;;8.70;59.90;;;;;;5011647;28;20472;-72
2024/03/23 08:18:36;;;;;;;15.25;6.30;;;8.80;56.40;;;;;;5012318;28;20527;-75
2024/03/23 08:21:06;;;;;;;21.75;5.80;;;9.10;54.60;;;;;;5014748;28;20899;-71
2024/03/23 08:23:39;;;;;;;21.35;6.20;;;9.40;50.20;;;;;;5021039;28;20377;-72
2024/03/23 08:26:13;;;;;;;23.15;6.10;;;9.40;48.10;;;;;;5013043;28;20520;-71
2024/03/23 08:28:38;;;;;;;18.02;5.18;;;9.40;50.50;;;;;;5011785;28;20397;-71
2024/03/23 08:31:07;;;;;;;19.42;5.50;;;9.70;47.80;;;;;;5012284;28;20393;-69
2024/03/23 08:33:32;;;;;;;22.00;5.65;;;9.90;44.00;;;;;;5012820;28;20392;-71
2024/03/23 08:36:03;;;;;;;15.32;4.82;;;10.20;42.80;;;;;;5011937;28;20408;-70
2024/03/23 08:38:29;;;;;;;12.73;4.28;;;10.50;40.00;;;;;;5012323;28;20516;-71
2024/03/23 08:41:02;;;;;;;11.83;4.27;;;10.80;37.00;;;;;;5025771;28;20411;-71
2024/03/23 08:43:29;;;;;;;10.43;4.05;;;10.80;37.50;;;;;;5029637;28;20391;-71
2024/03/23 08:46:06;;;;;;;20.00;5.07;;;10.90;37.50;;;;;;5030828;28;20386;-71
2024/03/23 08:48:36;;;;;;;12.97;4.57;;;10.80;38.50;;;;;;5031243;28;20444;-72
2024/03/23 08:51:03;;;;;;;13.02;4.50;;;11.00;39.60;;;;;;5014354;28;20392;-70
2024/03/23 08:53:30;;;;;;;18.13;4.80;;;10.80;38.10;;;;;;5012332;28;20477;-75
2024/03/23 08:55:56;;;;;;;15.35;5.10;;;10.30;39.30;;;;;;5010981;28;20389;-72
2024/03/23 08:58:24;;;;;;;11.85;3.53;;;10.00;42.80;;;;;;5011128;28;20389;-71
2024/03/23 09:00:50;;;;;;;10.10;2.88;;;9.80;41.90;;;;;;5014546;28;20415;-70
2024/03/23 09:03:15;;;;;;;6.35;2.20;;;9.20;42.20;;;;;;5016133;28;20738;-71
2024/03/23 09:05:41;;;;;;;8.02;2.50;;;8.30;43.20;;;;;;5021169;28;20383;-71
2024/03/23 09:08:08;;;;;;;10.65;2.90;;;8.30;44.70;;;;;;5035820;28;20386;-70
2024/03/23 09:10:38;;;;;;;8.13;2.95;;;8.50;46.40;;;;;;5021618;28;20471;-70
2024/03/23 09:13:04;;;;;;;5.47;2.30;;;8.80;47.90;;;;;;5023049;28;20387;-72
2024/03/23 09:15:31;;;;;;;9.23;3.00;;;9.20;46.00;;;;;;5025534;28;20395;-72
2024/03/23 09:17:58;;;;;;;11.10;3.90;;;9.70;41.60;;;;;;5024744;28;20418;-70
2024/03/23 09:20:24;;;;;;;13.30;3.20;;;9.90;38.40;;;;;;5033681;28;20708;-70
2024/03/23 09:22:49;;;;;;;16.60;4.73;;;10.00;38.30;;;;;;5034711;28;20478;-70
2024/03/23 09:25:15;;;;;;;10.57;3.53;;;10.00;35.30;;;;;;5034139;28;20422;-70
2024/03/23 09:27:40;;;;;;;15.57;3.57;;;10.20;34.40;;;;;;5033952;28;20422;-70
2024/03/23 09:30:06;;;;;;;10.18;3.70;;;10.10;34.10;;;;;;5028280;28;20472;-70
2024/03/23 09:32:32;;;;;;;12.52;3.92;;;9.90;34.60;;;;;;5014832;28;20396;-72
2024/03/23 09:34:57;;;;;;;14.97;3.70;;;9.70;36.20;;;;;;5014631;28;20860;-70
2024/03/23 09:37:23;;;;;;;13.90;4.40;;;9.80;37.40;;;;;;5014165;28;20751;-71
2024/03/23 09:39:48;;;;;;;19.50;5.00;;;10.00;37.00;;;;;;5014152;28;20444;-70
2024/03/23 09:42:14;;;;;;;13.20;4.20;;;10.30;36.00;;;;;;5015701;28;20454;-70
2024/03/23 09:44:40;;;;;;;19.10;4.68;;;10.50;34.60;;;;;;5016257;28;20389;-70
2024/03/23 09:47:07;;;;;;;10.87;4.03;;;10.50;31.20;;;;;;5013945;28;20483;-70
2024/03/23 09:49:36;;;;;;;7.60;3.80;;;10.60;30.00;;;;;;5022065;28;20389;-71
2024/03/23 09:52:02;;;;;;;10.35;4.40;;;10.30;31.20;;;;;;5020841;28;20755;-70
2024/03/23 09:54:28;;;;;;;13.48;4.55;;;10.10;33.00;;;;;;5014339;28;20393;-70
2024/03/23 09:56:53;;;;;;;10.70;4.30;;;9.90;32.50;;;;;;5019128;28;20911;-69
2024/03/23 09:59:19;;;;;;;13.40;4.43;;;9.80;36.30;;;;;;5003205;28;20764;-71
2024/03/23 10:01:44;;;;;;;13.27;5.50;;;9.90;35.40;;;;;;5013513;28;20427;-70
2024/03/23 10:04:10;;;;;;;13.30;3.80;;;9.90;39.10;;;;;;5015564;28;20393;-71
2024/03/23 10:06:36;;;;;;;9.90;4.20;;;10.10;36.10;;;;;;5014173;28;20392;-73
2024/03/23 10:09:16;;;;;;;10.20;4.30;;;10.20;32.10;;;;;;5015496;28;20388;-70
2024/03/23 10:11:44;;;;;;;8.45;3.60;;;10.20;31.80;;;;;;5013626;28;20440;-71
2024/03/23 10:14:09;;;;;;;11.15;3.30;;;10.30;30.60;;;;;;5035009;28;20734;-70
2024/03/23 10:16:35;;;;;;;10.20;2.65;;;10.20;30.30;;;;;;5016074;28;20400;-71
2024/03/23 10:19:00;;;;;;;14.93;3.10;;;10.50;26.60;;;;;;5016089;28;20950;-71
2024/03/23 10:21:26;;;;;;;14.40;3.00;;;10.50;26.10;;;;;;5032359;28;20414;-71
2024/03/23 10:23:51;;;;;;;10.70;3.70;;;10.50;27.30;;;;;;5030075;28;20880;-71
2024/03/23 10:26:25;;;;;;;10.27;2.87;;;10.40;27.80;;;;;;5031326;28;20992;-71
2024/03/23 10:29:03;;;;;;;11.02;3.50;;;10.20;28.40;;;;;;5031308;28;20437;-69
2024/03/23 10:31:29;;;;;;;9.10;2.50;;;9.70;33.50;;;;;;5026095;28;20395;-70
2024/03/23 10:33:54;;;;;;;11.65;2.25;;;8.90;35.90;;;;;;5013747;28;20392;-71
2024/03/23 10:36:22;;;;;;;13.07;2.70;;;8.30;43.80;;;;;;4998808;28;20759;-72
2024/03/23 10:38:49;;;;;;;8.90;2.90;;;7.90;45.00;;;;;;5019668;28;20397;-72
2024/03/23 10:41:15;;;;;;;11.25;2.30;;;7.50;45.00;;;;;;4994043;28;20408;-74
2024/03/23 10:43:40;;;;;;;3.08;1.90;;;7.30;44.60;;;;;;5019024;28;20415;-71
2024/03/23 10:46:06;;;;;;;6.40;2.50;;;7.20;47.00;;;;;;5018053;28;20884;-71
2024/03/23 10:48:33;;;;;;;5.50;1.30;;;7.60;71.10;;;;;;5012371;28;20393;-71
2024/03/23 10:50:59;;;;;;;10.02;1.70;;;7.50;45.80;;;;;;5014109;28;20396;-72
2024/03/23 10:53:28;;;;;;;2.72;1.20;;;7.60;42.70;;;;;;5004070;28;20780;-70
2024/03/23 10:55:55;;;;;;;5.53;1.95;;;7.50;42.70;;;;;;5022023;28;20396;-71
2024/03/23 10:58:38;;;;;;;3.83;1.75;;;7.50;44.80;;;;;;4999517;28;20404;-69
2024/03/23 11:01:03;;;;;;;2.83;1.65;;;7.60;43.70;;;;;;5012889;28;20779;-70
2024/03/23 11:03:33;;;;;;;3.67;1.95;;;8.10;45.20;;;;;;5023123;28;20467;-72
2024/03/23 11:06:00;;;;;;;6.95;2.28;;;8.20;39.00;;;;;;5033714;28;20520;-71
2024/03/23 11:08:34;;;;;;;5.47;1.50;;;8.30;38.70;;;;;;5032061;28;20391;-71
2024/03/23 11:11:21;;;;;;;2.85;1.40;;;8.40;36.80;;;;;;5031777;28;20413;-70
2024/03/23 11:13:51;;;;;;;4.57;2.17;;;8.50;37.20;;;;;;5032383;28;20387;-70
2024/03/23 11:16:31;;;;;;;8.95;3.30;;;8.50;57.90;;;;;;5017899;28;20488;-70
2024/03/23 11:19:35;;;;;;;5.65;2.83;;;8.60;38.10;;;;;;5012552;28;20468;-70
2024/03/23 11:22:02;;;;;;;4.82;2.53;;;8.60;39.60;;;;;;4997323;28;20439;-72
2024/03/23 11:24:27;;;;;;;7.90;3.97;;;8.50;41.60;;;;;;5013473;28;20887;-70
2024/03/23 11:26:54;;;;;;;3.00;1.60;;;8.40;41.20;;;;;;5013054;28;20401;-71
2024/03/23 11:29:19;;;;;;;2.38;1.63;;;8.40;39.50;;;;;;4996899;28;20424;-71
2024/03/23 11:31:49;;;;;;;6.70;2.13;;;8.30;41.20;;;;;;4996964;28;20389;-71
2024/03/23 11:34:19;;;;;;;6.72;2.10;;;8.20;41.10;;;;;;5012263;28;20385;-71
2024/03/23 11:36:45;;;;;;;6.38;1.70;;;8.30;39.70;;;;;;5012532;28;20392;-72
2024/03/23 11:39:16;;;;;;;5.30;2.00;;;8.40;41.10;;;;;;5013543;28;20764;-70
2024/03/23 11:41:49;;;;;;;8.00;2.17;;;8.60;40.80;;;;;;5013605;28;20915;-73
2024/03/23 11:44:19;;;;;;;3.30;1.80;;;8.80;39.70;;;;;;5012389;28;20814;-73
2024/03/23 11:46:45;;;;;;;4.70;2.17;;;8.90;37.40;;;;;;5012445;28;20429;-70
2024/03/23 11:49:23;;;;;;;6.35;2.30;;;9.30;36.90;;;;;;5016416;28;20384;-72
2024/03/23 11:51:49;;;;;;;7.18;2.40;;;9.90;35.40;;;;;;5018418;28;20762;-71
2024/03/23 11:54:15;;;;;;;7.40;1.92;;;10.40;34.20;;;;;;5017699;28;20942;-71
2024/03/23 11:56:53;;;;;;;6.22;1.80;;;8.40;43.00;;;;;;5012856;28;20504;-72
2024/03/23 11:59:40;;;;;;;5.93;1.80;;;7.90;46.60;;;;;;5013289;28;20393;-69
2024/03/23 12:02:10;;;;;;;4.97;2.13;;;7.10;59.00;;;;;;5013272;28;20467;-71
2024/03/23 12:04:39;;;;;;;5.05;1.27;;;6.90;67.60;;;;;;4996415;28;20389;-71
2024/03/23 12:07:19;;;;;;;4.50;1.55;;;6.80;57.10;;;;;;5013641;28;20871;-71
2024/03/23 12:09:46;;;;;;;2.33;1.40;;;6.80;60.20;;;;;;5012272;28;20396;-70
2024/03/23 12:12:18;;;;;;;3.50;1.50;;;7.20;54.20;;;;;;5012383;28;20401;-70
2024/03/23 12:15:05;;;;;;;3.60;1.70;;;7.60;59.00;;;;;;5011796;28;20456;-71
2024/03/23 12:17:30;;;;;;;2.88;1.50;;;7.90;52.40;;;;;;5011591;28;20892;-70
2024/03/23 12:19:56;;;;;;;4.65;1.50;;;8.10;51.90;;;;;;5011137;28;20412;-71
2024/03/23 12:22:22;;;;;;;3.90;1.40;;;8.40;49.10;;;;;;5015356;28;20803;-73
2024/03/23 12:24:48;;;;;;;3.85;1.25;;;8.50;45.80;;;;;;5015422;28;20381;-69
2024/03/23 12:27:14;;;;;;;4.93;1.20;;;8.70;46.00;;;;;;5013014;28;20447;-70
2024/03/23 12:29:41;;;;;;;2.53;1.63;;;8.80;43.40;;;;;;5013703;28;20385;-71
2024/03/23 12:32:07;;;;;;;7.40;1.52;;;8.80;42.20;;;;;;5013313;28;20393;-72
2024/03/23 12:34:33;;;;;;;7.47;2.95;;;8.90;40.60;;;;;;5012203;28;20399;-71
2024/03/23 12:36:58;;;;;;;7.68;2.30;;;9.30;39.70;;;;;;5013434;28;20387;-73
2024/03/23 12:39:24;;;;;;;5.27;2.17;;;9.30;42.20;;;;;;4995349;28;20432;-70
2024/03/23 12:41:51;;;;;;;5.43;2.17;;;9.70;39.20;;;;;;4993918;28;20405;-73
2024/03/23 12:44:17;;;;;;;6.95;2.28;;;9.70;36.80;;;;;;5013406;28;20373;-69
2024/03/23 12:46:42;;;;;;;4.20;1.80;;;9.60;34.70;;;;;;5012039;28;20484;-70